createdAt,value
2023-01-28T00:00:04.949Z,82.20
2023-01-28T00:02:34.387Z,81.53
2023-01-28T00:05:02.943Z,79.39
2023-01-28T00:07:32.368Z,79.56
2023-01-28T00:10:00.925Z,79.28
2023-01-28T00:12:30.016Z,80.47
2023-01-28T00:14:58.446Z,80.41
2023-01-28T00:17:27.180Z,80.49
2023-01-28T00:19:55.916Z,81.34
2023-01-28T00:22:24.551Z,82.08
2023-01-28T00:24:53.133Z,81.08
2023-01-28T00:27:21.719Z,80.18
2023-01-28T00:29:50.614Z,79.41
2023-01-28T00:32:19.089Z,79.55
2023-01-28T00:34:47.981Z,79.48
2023-01-28T00:37:16.360Z,80.20
2023-01-28T00:39:45.153Z,80.84
2023-01-28T00:42:13.881Z,80.86
2023-01-28T00:44:42.819Z,81.24
2023-01-28T00:47:11.649Z,80.73
2023-01-28T00:49:40.298Z,78.77
2023-01-28T00:52:11.748Z,77.34
2023-01-28T00:54:40.226Z,76.94
2023-01-28T00:57:09.319Z,77.41
2023-01-28T00:59:42.105Z,78.40
2023-01-28T01:02:13.688Z,79.58
2023-01-28T01:04:55.183Z,80.08
2023-01-28T01:07:32.835Z,80.97
2023-01-28T01:10:04.732Z,81.89
2023-01-28T01:12:33.284Z,81.13
2023-01-28T01:15:04.114Z,78.17
2023-01-28T01:17:33.237Z,77.24
2023-01-28T01:20:01.849Z,77.46
2023-01-28T01:22:33.958Z,77.98
2023-01-28T01:25:05.006Z,78.33
2023-01-28T01:27:33.484Z,78.77
2023-01-28T01:30:02.409Z,79.25
2023-01-28T01:40:12.786Z,77.56
2023-01-28T01:42:42.184Z,76.17
2023-01-28T01:45:15.170Z,76.12
2023-01-28T01:48:04.340Z,76.64
2023-01-28T01:50:35.637Z,78.51
2023-01-28T01:53:12.357Z,79.98
2023-01-28T01:55:44.419Z,80.81
2023-01-28T01:58:15.604Z,81.93
2023-01-28T02:00:45.931Z,81.34
2023-01-28T02:03:14.784Z,79.17
2023-01-28T02:05:45.004Z,78.22
2023-01-28T02:08:22.692Z,78.59
2023-01-28T02:11:01.758Z,79.58
2023-01-28T02:13:52.461Z,80.06
2023-01-28T02:16:21.457Z,79.63
2023-01-28T02:18:50.218Z,79.94
2023-01-28T02:21:51.779Z,81.28
2023-01-28T02:24:44.919Z,80.18
2023-01-28T02:27:54.184Z,77.68
2023-01-28T02:30:25.638Z,76.77
2023-01-28T02:32:56.320Z,77.72
2023-01-28T02:35:29.909Z,79.11
2023-01-28T02:38:05.800Z,79.98
2023-01-28T02:40:56.087Z,80.61
2023-01-28T02:43:33.793Z,81.15
2023-01-28T02:46:39.574Z,80.21
2023-01-28T02:49:23.579Z,78.02
2023-01-28T02:52:49.616Z,77.35
2023-01-28T02:55:50.567Z,77.46
2023-01-28T02:58:27.329Z,78.61
2023-01-28T03:01:11.389Z,79.02
2023-01-28T03:04:00.234Z,79.57
2023-01-28T03:06:42.391Z,80.22
2023-01-28T03:09:23.931Z,79.35
2023-01-28T03:12:44.731Z,77.33
2023-01-28T03:15:37.429Z,76.15
2023-01-28T03:18:34.228Z,76.19
2023-01-28T03:21:25.443Z,77.33
2023-01-28T03:24:19.754Z,78.20
2023-01-28T03:27:23.940Z,79.53
2023-01-28T03:30:19.452Z,79.52
2023-01-28T03:33:07.181Z,79.89
2023-01-28T03:35:55.136Z,78.75
2023-01-28T03:38:26.364Z,77.29
2023-01-28T03:41:05.695Z,76.28
2023-01-28T03:43:35.407Z,76.06
2023-01-28T03:46:06.715Z,76.23
2023-01-28T03:48:35.958Z,76.89
2023-01-28T03:51:05.875Z,77.24
2023-01-28T03:53:34.575Z,78.33
2023-01-28T03:56:03.138Z,79.58
2023-01-28T03:58:52.106Z,80.91
2023-01-28T04:01:21.287Z,79.37
2023-01-28T04:03:50.796Z,78.57
2023-01-28T04:06:25.290Z,78.98
2023-01-28T04:09:00.987Z,78.66
2023-01-28T04:11:32.210Z,79.26
2023-01-28T04:14:03.665Z,79.83
2023-01-28T04:16:55.296Z,80.01
2023-01-28T04:19:26.403Z,80.61
2023-01-28T04:21:57.242Z,80.03
2023-01-28T04:24:26.961Z,78.67
2023-01-28T04:26:56.575Z,77.40
2023-01-28T04:29:27.230Z,76.67
2023-01-28T04:32:00.354Z,77.34
2023-01-28T04:34:42.005Z,79.00
2023-01-28T04:37:36.789Z,79.76
2023-01-28T04:40:25.967Z,79.39
2023-01-28T04:43:06.209Z,78.81
2023-01-28T04:45:58.039Z,79.29
2023-01-28T04:48:43.934Z,77.53
2023-01-28T04:51:31.571Z,74.46
2023-01-28T04:54:20.631Z,74.58
2023-01-28T04:56:49.417Z,74.21
2023-01-28T04:59:18.692Z,74.19
2023-01-28T05:01:47.141Z,74.98
2023-01-28T05:04:17.622Z,75.46
2023-01-28T05:06:46.117Z,76.06
2023-01-28T05:09:25.131Z,76.03
2023-01-28T05:11:54.740Z,76.61
2023-01-28T05:14:23.659Z,77.76
2023-01-28T05:17:15.877Z,77.50
2023-01-28T05:19:46.589Z,75.47
2023-01-28T05:22:20.938Z,74.42
2023-01-28T05:25:12.765Z,74.53
2023-01-28T05:27:41.464Z,75.26
2023-01-28T05:30:11.320Z,75.49
2023-01-28T05:32:40.161Z,75.82
2023-01-28T05:35:09.963Z,76.30
2023-01-28T05:37:38.526Z,76.33
2023-01-28T05:40:08.233Z,76.70
2023-01-28T05:42:36.624Z,77.23
2023-01-28T05:45:41.284Z,75.76
2023-01-28T05:48:17.190Z,73.93
2023-01-28T05:51:06.369Z,74.50
2023-01-28T05:53:37.820Z,75.64
2023-01-28T05:56:07.459Z,76.47
2023-01-28T05:58:36.729Z,77.57
2023-01-28T06:01:05.807Z,78.21
2023-01-28T06:03:43.311Z,79.22
2023-01-28T06:06:12.088Z,79.89
2023-01-28T06:08:41.389Z,78.80
2023-01-28T06:11:10.793Z,78.33
2023-01-28T06:13:41.938Z,78.95
2023-01-28T06:16:36.933Z,79.66
2023-01-28T06:19:25.694Z,80.15
2023-01-28T06:21:54.277Z,80.66
2023-01-28T06:24:23.139Z,80.66
2023-01-28T06:26:51.855Z,79.51
2023-01-28T06:29:20.740Z,79.65
2023-01-28T06:31:49.763Z,79.27
2023-01-28T06:34:18.314Z,80.59
2023-01-28T06:36:47.318Z,81.93
2023-01-28T06:39:15.801Z,82.68
2023-01-28T06:41:44.381Z,82.04
2023-01-28T06:44:13.058Z,81.03
2023-01-28T06:46:42.026Z,80.31
2023-01-28T06:49:10.426Z,80.71
2023-01-28T06:51:38.847Z,81.04
2023-01-28T06:54:08.309Z,81.24
2023-01-28T06:56:36.792Z,82.32
2023-01-28T06:59:06.022Z,82.98
2023-01-28T07:01:34.647Z,81.58
2023-01-28T07:04:03.257Z,80.49
2023-01-28T07:06:32.352Z,79.97
2023-01-28T07:09:01.143Z,79.79
2023-01-28T07:11:29.822Z,81.22
2023-01-28T07:13:58.556Z,81.84
2023-01-28T07:16:27.091Z,81.83
2023-01-28T07:18:55.780Z,82.04
2023-01-28T07:21:25.195Z,81.20
2023-01-28T07:23:53.604Z,80.42
2023-01-28T07:26:22.245Z,80.47
2023-01-28T07:28:52.939Z,80.09
2023-01-28T07:31:21.632Z,80.47
2023-01-28T07:41:32.389Z,80.29
2023-01-28T07:44:08.232Z,80.86
2023-01-28T07:46:37.229Z,80.69
2023-01-28T07:49:05.809Z,80.50
2023-01-28T07:51:35.928Z,80.55
2023-01-28T07:54:04.692Z,80.19
2023-01-28T07:56:33.095Z,80.00
2023-01-28T07:59:02.193Z,78.21
2023-01-28T08:09:08.806Z,76.66
2023-01-28T08:11:38.420Z,76.84
2023-01-28T08:14:07.216Z,76.79
2023-01-28T08:16:35.785Z,75.45
2023-01-28T08:19:04.387Z,75.73
2023-01-28T08:21:32.963Z,75.82
2023-01-28T08:24:01.743Z,75.48
2023-01-28T08:26:30.632Z,75.48
2023-01-28T08:28:59.232Z,75.00
2023-01-28T08:31:29.625Z,75.38
2023-01-28T08:33:59.458Z,75.05
2023-01-28T08:36:29.079Z,75.10
2023-01-28T08:38:57.957Z,74.43
2023-01-28T08:41:32.680Z,74.91
2023-01-28T08:44:01.687Z,74.72
2023-01-28T08:46:30.389Z,74.90
2023-01-28T08:50:26.909Z,75.04
2023-01-28T08:52:58.661Z,74.87
2023-01-28T08:55:26.680Z,73.82
2023-01-28T09:19:35.885Z,72.81
2023-01-28T09:22:06.018Z,72.26
2023-01-28T09:24:35.004Z,71.84
2023-01-28T09:27:03.390Z,72.07
2023-01-28T09:29:31.159Z,72.10
2023-01-28T09:31:58.600Z,71.58
2023-01-28T09:34:29.500Z,72.03
2023-01-28T09:36:57.126Z,70.36
2023-01-28T09:39:25.487Z,69.84
2023-01-28T09:42:00.483Z,70.08
2023-01-28T09:44:53.991Z,70.59
2023-01-28T09:47:46.947Z,70.86
2023-01-28T09:50:17.912Z,70.59
2023-01-28T09:52:45.644Z,70.06
2023-01-28T09:55:33.074Z,69.77
2023-01-28T09:58:00.528Z,68.85
2023-01-28T10:00:54.874Z,68.61
2023-01-28T10:03:32.760Z,68.97
2023-01-28T10:06:14.199Z,69.58
2023-01-28T10:08:42.780Z,69.34
2023-01-28T10:11:34.102Z,70.22
2023-01-28T10:14:06.984Z,69.69
2023-01-28T10:16:38.839Z,69.76
2023-01-28T10:19:23.324Z,69.96
2023-01-28T10:22:15.872Z,68.57
2023-01-28T10:24:50.145Z,68.12
2023-01-28T10:27:21.606Z,68.11
2023-01-28T10:29:50.512Z,67.40
2023-01-28T10:32:21.438Z,68.64
2023-01-28T10:34:50.275Z,69.23
2023-01-28T10:37:17.482Z,70.13
2023-01-28T10:39:47.912Z,68.84
2023-01-28T10:42:37.687Z,69.09
2023-01-28T10:45:23.000Z,70.54
2023-01-28T10:48:24.414Z,69.66
2023-01-28T10:50:56.786Z,70.18
2023-01-28T10:53:37.878Z,70.18
2023-01-28T10:56:11.439Z,70.41
2023-01-28T10:58:58.429Z,70.69
2023-01-28T11:01:26.784Z,70.14
2023-01-28T11:04:24.412Z,70.65
2023-01-28T11:06:59.347Z,70.71
2023-01-28T11:09:30.874Z,69.71
2023-01-28T11:11:59.386Z,70.49
2023-01-28T11:14:27.863Z,70.50
2023-01-28T11:16:56.244Z,71.84
2023-01-28T11:19:29.486Z,71.80
2023-01-28T11:21:57.498Z,72.25
2023-01-28T11:24:33.272Z,72.33
2023-01-28T11:27:12.497Z,72.19
2023-01-28T11:29:41.902Z,71.61
2023-01-28T11:32:22.971Z,71.27
2023-01-28T11:34:57.077Z,71.89
2023-01-28T11:37:26.172Z,71.55
2023-01-28T11:40:19.135Z,71.09
2023-01-28T11:42:51.093Z,71.51
2023-01-28T11:45:36.089Z,71.80
2023-01-28T11:48:26.451Z,71.93
2023-01-28T11:50:58.104Z,71.42
2023-01-28T11:54:03.448Z,71.47
2023-01-28T11:56:38.637Z,71.80
2023-01-28T11:59:24.280Z,72.49
2023-01-28T12:01:57.800Z,73.41
2023-01-28T12:04:42.258Z,72.92
2023-01-28T12:07:47.085Z,71.81
2023-01-28T12:10:16.833Z,72.04
2023-01-28T12:13:05.749Z,72.22
2023-01-28T12:16:06.523Z,72.64
2023-01-28T12:18:38.933Z,72.46
2023-01-28T12:21:35.678Z,72.62
2023-01-28T12:24:03.583Z,72.18
2023-01-28T12:26:35.509Z,73.47
2023-01-28T12:29:06.246Z,74.01
2023-01-28T12:31:58.784Z,73.45
2023-01-28T12:34:39.043Z,72.70
2023-01-28T12:37:28.224Z,73.00
2023-01-28T12:40:18.342Z,73.07
2023-01-28T12:43:04.082Z,73.62
2023-01-28T12:45:53.289Z,74.40
2023-01-28T12:48:29.609Z,74.52
2023-01-28T12:51:15.398Z,74.62
2023-01-28T12:53:59.355Z,75.01
2023-01-28T12:56:35.501Z,74.90
2023-01-28T12:59:28.052Z,73.55
2023-01-28T13:02:24.989Z,73.56
2023-01-28T13:05:00.896Z,73.16
2023-01-28T13:07:57.293Z,73.29
2023-01-28T13:10:26.143Z,74.09
2023-01-28T13:12:57.388Z,73.85
2023-01-28T13:15:25.499Z,74.55
2023-01-28T13:18:00.011Z,75.22
2023-01-28T13:20:50.015Z,74.82
2023-01-28T13:23:43.711Z,73.39
2023-01-28T13:26:23.747Z,72.27
2023-01-28T13:28:52.943Z,72.68
2023-01-28T13:31:23.444Z,72.31
2023-01-28T13:33:53.983Z,72.64
2023-01-28T13:36:31.366Z,72.64
2023-01-28T13:39:05.192Z,72.74
2023-01-28T13:41:41.278Z,73.25
2023-01-28T13:44:29.400Z,73.43
2023-01-28T13:46:59.870Z,73.66
2023-01-28T13:49:34.065Z,73.16
2023-01-28T13:52:08.927Z,72.57
2023-01-28T13:54:45.864Z,72.76
2023-01-28T13:57:47.711Z,72.76
2023-01-28T14:00:55.596Z,72.98
2023-01-28T14:03:35.445Z,74.39
2023-01-28T14:06:21.943Z,74.84
2023-01-28T14:09:04.151Z,75.16
2023-01-28T14:11:59.458Z,74.36
2023-01-28T14:15:04.599Z,73.84
2023-01-28T14:17:38.804Z,74.01
2023-01-28T14:20:16.911Z,74.11
2023-01-28T14:22:44.982Z,74.65
2023-01-28T14:25:16.929Z,75.07
2023-01-28T14:27:47.372Z,75.57
2023-01-28T14:30:39.073Z,76.04
2023-01-28T14:33:07.790Z,75.58
2023-01-28T14:35:35.347Z,73.46
2023-01-28T14:38:07.409Z,73.11
2023-01-28T14:40:37.731Z,73.02
2023-01-28T14:43:07.132Z,73.03
2023-01-28T14:45:59.985Z,73.16
2023-01-28T14:49:06.063Z,74.35
2023-01-28T14:51:36.591Z,74.52
2023-01-28T14:54:35.775Z,75.41
2023-01-28T14:57:25.043Z,75.71
2023-01-28T14:59:54.262Z,74.11
2023-01-28T15:02:23.914Z,73.86
2023-01-28T15:04:54.174Z,73.93
2023-01-28T15:07:23.367Z,73.99
2023-01-28T15:10:05.270Z,74.05
2023-01-28T15:12:35.364Z,74.28
2023-01-28T15:15:18.411Z,74.72
2023-01-28T15:17:46.578Z,75.69
2023-01-28T15:20:22.632Z,75.94
2023-01-28T15:22:51.740Z,76.74
2023-01-28T15:25:21.601Z,74.29
2023-01-28T15:27:50.234Z,73.31
2023-01-28T15:30:23.331Z,73.03
2023-01-28T15:32:58.878Z,74.46
2023-01-28T15:35:26.322Z,75.25
2023-01-28T15:37:53.987Z,75.30
2023-01-28T15:40:22.049Z,76.11
2023-01-28T15:42:52.116Z,76.73
2023-01-28T15:45:21.273Z,77.04
2023-01-28T15:47:49.051Z,76.53
2023-01-28T15:50:24.784Z,75.18
2023-01-28T15:52:53.550Z,74.23
2023-01-28T15:55:35.265Z,73.94
2023-01-28T15:58:12.148Z,75.33
2023-01-28T16:00:39.737Z,75.57
2023-01-28T16:03:09.045Z,75.84
2023-01-28T16:05:38.918Z,76.60
2023-01-28T16:08:12.107Z,77.19
2023-01-28T16:10:39.565Z,76.23
2023-01-28T16:13:13.666Z,75.07
2023-01-28T16:15:46.088Z,74.67
2023-01-28T16:18:34.796Z,74.87
2023-01-28T16:21:03.072Z,75.66
2023-01-28T16:23:30.733Z,75.86
2023-01-28T16:26:02.711Z,75.96
2023-01-28T16:28:30.604Z,76.21
2023-01-28T16:31:01.302Z,76.67
2023-01-28T16:33:29.059Z,75.11
2023-01-28T16:36:08.733Z,73.93
2023-01-28T16:38:36.282Z,73.77
2023-01-28T16:41:04.537Z,73.93
2023-01-28T16:43:31.796Z,74.62
2023-01-28T16:45:59.035Z,75.25
2023-01-28T16:48:26.609Z,75.77
2023-01-28T16:50:53.744Z,76.06
2023-01-28T16:53:23.456Z,76.29
2023-01-28T16:55:50.634Z,74.90
2023-01-28T16:58:24.014Z,72.23
2023-01-28T17:00:51.228Z,71.76
2023-01-28T17:03:19.735Z,71.67
2023-01-28T17:05:46.988Z,71.36
2023-01-28T17:08:15.051Z,71.57
2023-01-28T17:10:43.232Z,72.22
2023-01-28T17:13:10.481Z,72.72
2023-01-28T17:15:37.646Z,72.82
2023-01-28T17:18:04.959Z,72.95
2023-01-28T17:20:37.047Z,73.41
2023-01-28T17:23:06.882Z,74.42
2023-01-28T17:25:39.139Z,74.64
2023-01-28T17:28:06.992Z,72.47
2023-01-28T17:30:34.761Z,71.42
2023-01-28T17:33:02.628Z,72.17
2023-01-28T17:35:30.905Z,73.00
2023-01-28T17:38:05.044Z,74.15
2023-01-28T17:40:33.286Z,74.70
2023-01-28T17:43:00.647Z,75.42
2023-01-28T17:45:30.881Z,75.46
2023-01-28T17:47:57.918Z,75.81
2023-01-28T17:50:25.157Z,74.41
2023-01-28T17:52:55.694Z,72.94
2023-01-28T17:55:26.440Z,72.51
2023-01-28T17:57:53.592Z,72.66
2023-01-28T18:00:22.567Z,72.87
2023-01-28T18:02:50.943Z,73.46
2023-01-28T18:05:18.914Z,74.50
2023-01-28T18:07:46.912Z,74.26
2023-01-28T18:10:14.452Z,75.24
2023-01-28T18:12:42.533Z,75.49
2023-01-28T18:15:11.282Z,73.84
2023-01-28T18:17:38.669Z,71.78
2023-01-28T18:20:07.047Z,71.01
2023-01-28T18:22:34.080Z,71.79
2023-01-28T18:25:01.237Z,71.42
2023-01-28T18:27:29.104Z,71.89
2023-01-28T18:29:57.628Z,72.25
2023-01-28T18:32:25.032Z,72.81
2023-01-28T18:34:52.232Z,73.83
2023-01-28T18:37:19.540Z,73.80
2023-01-28T18:39:46.784Z,74.20
2023-01-28T18:42:14.458Z,73.29
2023-01-28T18:44:43.131Z,71.82
2023-01-28T18:47:11.412Z,71.19
2023-01-28T18:49:41.347Z,71.79
2023-01-28T18:52:09.806Z,72.07
2023-01-28T18:54:37.262Z,72.60
2023-01-28T18:57:04.921Z,73.18
2023-01-28T18:59:32.139Z,73.44
2023-01-28T19:02:00.925Z,74.41
2023-01-28T19:04:28.009Z,75.08
2023-01-28T19:06:56.969Z,73.77
2023-01-28T19:09:24.062Z,71.91
2023-01-28T19:11:51.315Z,71.36
2023-01-28T19:14:19.267Z,71.57
2023-01-28T19:16:46.859Z,71.97
2023-01-28T19:19:14.397Z,72.68
2023-01-28T19:21:42.367Z,73.60
2023-01-28T19:24:11.223Z,74.72
2023-01-28T19:26:38.292Z,75.27
2023-01-28T19:29:08.941Z,75.54
2023-01-28T19:31:37.444Z,75.02
2023-01-28T19:34:05.782Z,73.12
2023-01-28T19:36:33.445Z,72.30
2023-01-28T19:46:43.654Z,74.80
2023-01-28T19:49:13.540Z,75.51
2023-01-28T19:51:45.251Z,75.35
2023-01-28T19:54:13.905Z,75.62
2023-01-28T19:56:42.969Z,74.51
2023-01-28T19:59:11.704Z,73.03
2023-01-28T20:01:40.158Z,72.83
2023-01-28T20:04:08.848Z,73.17
2023-01-28T20:06:37.946Z,73.88
2023-01-28T20:09:09.383Z,74.81
2023-01-28T20:11:38.082Z,75.65
2023-01-28T20:14:06.768Z,76.39
2023-01-28T20:16:38.108Z,76.47
2023-01-28T20:19:08.048Z,75.34
2023-01-28T20:21:39.618Z,73.97
2023-01-28T20:24:09.014Z,74.02
2023-01-28T20:26:38.088Z,74.43
2023-01-28T20:29:08.234Z,75.07
2023-01-28T20:31:37.064Z,75.65
2023-01-28T20:34:06.311Z,75.98
2023-01-28T20:36:35.520Z,76.61
2023-01-28T20:39:08.410Z,76.78
2023-01-28T20:41:37.768Z,75.72
2023-01-28T20:44:06.268Z,74.28
2023-01-28T20:46:38.843Z,74.15
2023-01-28T20:49:08.745Z,74.70
2023-01-28T20:51:38.657Z,75.47
2023-01-28T20:54:10.521Z,76.03
2023-01-28T20:56:39.816Z,76.58
2023-01-28T20:59:10.040Z,77.08
2023-01-28T21:01:38.986Z,76.05
2023-01-28T21:04:10.609Z,75.27
2023-01-28T21:06:42.457Z,75.33
2023-01-28T21:09:11.182Z,75.87
2023-01-28T21:11:39.916Z,76.57
2023-01-28T21:14:08.495Z,76.68
2023-01-28T21:16:41.889Z,77.72
2023-01-28T21:19:10.996Z,78.09
2023-01-28T21:21:42.859Z,76.78
2023-01-28T21:24:14.507Z,75.74
2023-01-28T21:26:43.288Z,75.91
2023-01-28T21:29:14.850Z,76.16
2023-01-28T21:31:44.466Z,76.53
2023-01-28T21:34:13.747Z,77.36
2023-01-28T21:36:42.330Z,78.20
2023-01-28T21:39:11.017Z,78.26
2023-01-28T21:41:40.396Z,77.03
2023-01-28T21:44:11.561Z,76.19
2023-01-28T21:46:40.652Z,76.51
2023-01-28T21:49:10.467Z,76.94
2023-01-28T21:51:48.272Z,77.86
2023-01-28T21:54:20.849Z,78.50
2023-01-28T21:56:50.555Z,79.46
2023-01-28T21:59:29.192Z,78.99
2023-01-28T22:02:01.677Z,77.56
2023-01-28T22:04:37.027Z,77.20
2023-01-28T22:07:07.970Z,77.65
2023-01-28T22:09:36.424Z,77.81
2023-01-28T22:12:09.404Z,79.08
2023-01-28T22:14:39.318Z,79.14
2023-01-28T22:17:09.322Z,79.79
2023-01-28T22:19:39.233Z,78.50
2023-01-28T22:22:08.025Z,77.00
2023-01-28T22:24:36.747Z,77.12
2023-01-28T22:27:05.297Z,78.32
2023-01-28T22:29:33.978Z,78.73
2023-01-28T22:32:05.056Z,79.70
2023-01-28T22:34:33.770Z,80.66
2023-01-28T22:37:02.701Z,80.26
2023-01-28T22:39:31.325Z,79.03
2023-01-28T22:42:00.795Z,78.23
2023-01-28T22:44:29.389Z,78.85
2023-01-28T22:46:58.059Z,79.51
2023-01-28T22:49:27.558Z,80.07
2023-01-28T22:51:56.048Z,80.27
2023-01-28T22:54:25.237Z,80.73
2023-01-28T22:56:54.023Z,79.58
2023-01-28T22:59:24.781Z,78.38
2023-01-28T23:01:53.578Z,78.26
2023-01-28T23:04:22.031Z,79.07
2023-01-28T23:06:50.917Z,80.02
2023-01-28T23:09:19.509Z,80.69
2023-01-28T23:11:48.218Z,80.30
2023-01-28T23:14:35.714Z,79.34
2023-01-28T23:17:22.986Z,78.49
2023-01-28T23:20:11.283Z,78.53
2023-01-28T23:22:58.645Z,79.70
2023-01-28T23:25:27.191Z,80.92
2023-01-28T23:27:56.072Z,81.59
2023-01-28T23:30:25.783Z,80.20
2023-01-28T23:32:56.629Z,79.33
2023-01-28T23:35:27.874Z,78.56
2023-01-28T23:37:57.011Z,79.60
2023-01-28T23:40:27.390Z,80.37
2023-01-28T23:42:55.967Z,80.89
2023-01-28T23:45:25.489Z,80.81
2023-01-28T23:47:54.588Z,80.75
2023-01-28T23:50:23.292Z,79.70
2023-01-28T23:52:55.007Z,79.64
2023-01-28T23:55:24.222Z,79.69
2023-01-28T23:57:52.688Z,80.03
